Time;durP1;ratioP1;P1;durP2;ratioP2;P2;SDS_P1;SDS_P2;PMS_P1;PMS_P2;Temp;Humidity;BMP_temperature;BMP_pressure;BME280_temperature;BME280_humidity;BME280_pressure;Samples;Min_cycle;Max_cycle;Signal;HPM_P1;HPM_P2
2024/03/04 00:00:39;;;;;;;77.05;31.77;;;;;;;4.67;57.96;100687.09;5028544;28;20028;-67
2024/03/04 00:03:04;;;;;;;76.78;31.35;;;;;;;4.74;58.17;100683.50;5010686;28;20032;-68
2024/03/04 00:05:30;;;;;;;68.57;30.10;;;;;;;4.68;57.44;100685.38;5012694;28;20136;-69
2024/03/04 00:07:58;;;;;;;71.88;29.70;;;;;;;4.57;57.99;100682.97;5024451;28;20036;-69
2024/03/04 00:10:24;;;;;;;69.30;28.27;;;;;;;4.43;57.45;100694.41;5018034;28;20121;-68
2024/03/04 00:12:49;;;;;;;65.07;28.40;;;;;;;4.46;57.92;100697.84;5005241;28;20044;-68
2024/03/04 00:15:15;;;;;;;65.30;27.90;;;;;;;4.43;57.60;100703.91;5015364;28;20472;-77
2024/03/04 00:17:40;;;;;;;67.53;28.27;;;;;;;4.39;57.44;100702.25;5030246;28;20040;-76
2024/03/04 00:20:09;;;;;;;67.22;30.70;;;;;;;4.17;58.29;100702.59;5009048;28;20044;-76
2024/03/04 00:22:37;;;;;;;64.07;30.08;;;;;;;4.09;58.16;100708.78;5004843;28;20053;-76
2024/03/04 00:25:05;;;;;;;67.63;29.27;;;;;;;4.19;57.64;100707.75;5027980;28;20856;-76
2024/03/04 00:27:32;;;;;;;69.05;29.52;;;;;;;4.05;57.84;100701.94;5024216;28;20033;-76
2024/03/04 00:29:58;;;;;;;63.60;29.55;;;;;;;4.06;57.83;100714.00;5022316;28;20060;-76
2024/03/04 00:32:23;;;;;;;67.20;28.38;;;;;;;4.02;58.20;100714.03;5023269;28;20127;-75
2024/03/04 00:34:49;;;;;;;65.88;28.65;;;;;;;4.08;57.75;100713.09;5025817;28;20032;-75
2024/03/04 00:37:14;;;;;;;69.53;28.13;;;;;;;4.09;57.85;100703.59;5018097;28;20056;-75
2024/03/04 00:39:41;;;;;;;61.92;28.73;;;;;;;4.08;57.93;100714.84;5027155;28;20291;-76
2024/03/04 00:42:07;;;;;;;72.07;28.27;;;;;;;3.94;57.75;100710.72;5024530;28;20055;-76
2024/03/04 00:44:33;;;;;;;71.88;28.83;;;;;;;3.95;57.68;100711.59;5021071;28;20097;-75
2024/03/04 00:46:59;;;;;;;64.32;26.55;;;;;;;3.82;57.62;100708.31;5011079;28;20040;-76
2024/03/04 00:49:24;;;;;;;70.25;26.92;;;;;;;3.78;58.13;100719.56;5004907;28;20021;-72
2024/03/04 00:51:50;;;;;;;67.53;29.33;;;;;;;3.76;58.05;100708.41;5008392;28;20040;-75
2024/03/04 00:54:15;;;;;;;68.07;28.70;;;;;;;3.78;58.31;100714.41;5006667;28;20032;-74
2024/03/04 00:56:41;;;;;;;63.55;27.23;;;;;;;3.72;58.54;100709.34;4998291;28;20179;-74
2024/03/04 00:59:07;;;;;;;71.35;28.92;;;;;;;3.68;58.57;100710.25;5020989;28;20058;-74
2024/03/04 01:01:33;;;;;;;68.63;28.77;;;;;;;3.71;58.62;100715.38;5005082;28;20290;-74
2024/03/04 01:03:59;;;;;;;69.35;29.63;;;;;;;3.67;58.78;100711.09;5027803;28;20123;-74
2024/03/04 01:06:27;;;;;;;68.25;30.05;;;;;;;3.74;58.82;100713.59;5006559;28;20619;-70
2024/03/04 01:08:53;;;;;;;78.18;30.88;;;;;;;3.65;59.21;100718.91;5023473;28;20326;-71
2024/03/04 01:11:19;;;;;;;72.45;30.60;;;;;;;3.72;59.04;100725.69;5026120;28;20305;-71
2024/03/04 01:13:45;;;;;;;76.82;29.38;;;;;;;3.68;58.99;100724.03;5027097;28;20503;-68
2024/03/04 01:16:10;;;;;;;77.28;29.95;;;;;;;3.75;59.01;100724.78;5023939;28;20045;-68
2024/03/04 01:18:36;;;;;;;75.18;32.17;;;;;;;3.79;58.62;100732.47;5023393;28;20251;-68
2024/03/04 01:21:03;;;;;;;71.03;28.73;;;;;;;3.76;59.17;100726.50;5008236;28;20238;-68
2024/03/04 01:23:30;;;;;;;73.65;31.48;;;;;;;3.73;58.70;100727.38;5017884;28;20082;-72
2024/03/04 01:25:56;;;;;;;65.38;28.52;;;;;;;3.71;58.88;100725.72;5028833;28;20052;-78
2024/03/04 01:28:22;;;;;;;75.45;30.95;;;;;;;3.72;58.84;100730.88;5020925;28;20036;-77
2024/03/04 01:30:49;;;;;;;73.25;29.15;;;;;;;3.76;58.91;100731.66;5026582;28;20052;-76
2024/03/04 01:33:15;;;;;;;69.75;29.38;;;;;;;3.73;59.16;100736.88;5025356;28;20052;-78
2024/03/04 01:35:41;;;;;;;70.13;29.92;;;;;;;3.74;59.68;100739.47;5026265;28;20020;-74
2024/03/04 01:38:06;;;;;;;79.50;32.80;;;;;;;3.91;59.72;100739.19;5033143;28;20078;-71
2024/03/04 01:40:32;;;;;;;77.35;33.28;;;;;;;4.05;59.62;100739.03;5001645;28;20085;-71
2024/03/04 01:42:57;;;;;;;77.95;30.42;;;;;;;4.10;59.46;100741.53;5028174;28;20051;-72
2024/03/04 01:45:27;;;;;;;79.93;29.85;;;;;;;4.18;59.26;100737.09;5016246;28;20040;-71
2024/03/04 01:47:58;;;;;;;77.18;30.80;;;;;;;4.27;59.37;100739.53;5028310;28;20067;-71
2024/03/04 01:50:26;;;;;;;68.65;28.45;;;;;;;4.35;59.19;100744.59;5022741;28;20207;-71
2024/03/04 01:52:55;;;;;;;102.95;31.00;;;;;;;4.39;59.51;100744.50;5026103;28;20032;-71
2024/03/04 01:55:22;;;;;;;69.40;32.05;;;;;;;4.46;59.39;100739.25;5016122;28;20044;-71
2024/03/04 01:57:51;;;;;;;81.15;32.08;;;;;;;4.53;59.44;100740.84;5033474;28;20595;-71
2024/03/04 02:00:17;;;;;;;90.68;31.73;;;;;;;4.52;59.46;100737.41;5018211;28;20037;-71
2024/03/04 02:02:43;;;;;;;65.72;29.00;;;;;;;4.58;59.44;100744.19;5023975;28;20045;-72
2024/03/04 02:05:10;;;;;;;69.38;31.73;;;;;;;4.64;59.34;100739.78;5024361;28;20056;-71
2024/03/04 02:07:40;;;;;;;109.13;31.13;;;;;;;4.51;59.62;100740.00;5021558;28;20060;-73
2024/03/04 02:10:07;;;;;;;76.75;30.65;;;;;;;4.46;60.10;100745.28;5024747;28;20541;-73
2024/03/04 02:12:33;;;;;;;70.47;29.48;;;;;;;4.67;59.58;100748.38;5018477;28;20032;-71
2024/03/04 02:14:59;;;;;;;87.78;31.40;;;;;;;4.60;59.46;100750.22;5026989;28;20578;-71
2024/03/04 02:17:27;;;;;;;57.92;28.05;;;;;;;4.62;59.55;100761.41;5017229;28;20464;-71
2024/03/04 02:19:58;;;;;;;80.40;27.55;;;;;;;4.66;59.67;100747.53;5034854;28;20083;-71
2024/03/04 02:22:27;;;;;;;159.45;30.48;;;;;;;4.61;59.11;100759.69;5018028;28;20064;-72
2024/03/04 02:24:53;;;;;;;58.35;27.33;;;;;;;4.60;59.30;100756.22;5027436;28;20043;-71
2024/03/04 02:27:20;;;;;;;48.67;24.15;;;;;;;4.56;59.43;100762.34;5018105;28;20044;-71
2024/03/04 02:29:48;;;;;;;68.03;27.08;;;;;;;4.52;59.33;100760.72;5029678;28;20063;-71
2024/03/04 02:32:16;;;;;;;69.60;26.42;;;;;;;4.42;59.87;100762.56;5025047;28;20044;-72
2024/03/04 02:34:45;;;;;;;62.90;25.52;;;;;;;4.42;59.70;100759.97;5031278;28;20036;-70
2024/03/04 02:37:12;;;;;;;51.33;25.15;;;;;;;4.48;59.52;100755.59;5021776;28;20044;-70
2024/03/04 02:39:37;;;;;;;95.30;26.13;;;;;;;4.37;59.47;100761.81;5022181;28;20799;-70
2024/03/04 02:42:03;;;;;;;54.92;26.40;;;;;;;4.41;59.94;100753.13;5023623;28;20048;-70
2024/03/04 02:44:30;;;;;;;81.82;26.20;;;;;;;4.51;59.90;100758.13;5015065;28;20073;-70
2024/03/04 02:46:56;;;;;;;78.88;26.77;;;;;;;4.32;59.91;100763.63;5023035;28;20491;-70
2024/03/04 02:49:21;;;;;;;54.70;26.10;;;;;;;4.51;59.87;100768.50;5022669;28;20036;-70
2024/03/04 02:51:47;;;;;;;106.60;28.33;;;;;;;4.43;60.02;100764.28;5021545;28;20135;-70
2024/03/04 02:54:12;;;;;;;99.25;27.77;;;;;;;4.29;60.22;100758.47;5025029;28;20085;-70
2024/03/04 02:56:38;;;;;;;62.53;24.70;;;;;;;4.33;60.57;100764.47;5019864;28;20868;-70
2024/03/04 02:59:03;;;;;;;95.22;27.00;;;;;;;4.34;60.02;100769.63;5023239;28;20039;-71
2024/03/04 03:01:29;;;;;;;82.20;27.77;;;;;;;4.14;60.85;100771.63;5018124;28;20085;-70
2024/03/04 03:03:54;;;;;;;57.45;25.25;;;;;;;4.40;60.38;100777.25;5026499;28;20025;-70
2024/03/04 03:06:20;;;;;;;67.18;24.77;;;;;;;4.35;60.21;100778.22;5006938;28;20079;-69
2024/03/04 03:08:46;;;;;;;62.97;25.67;;;;;;;4.50;60.28;100783.16;5019826;28;20039;-68
2024/03/04 03:11:12;;;;;;;74.20;26.20;;;;;;;4.53;60.34;100782.25;5025378;28;20076;-68
2024/03/04 03:13:37;;;;;;;60.08;26.05;;;;;;;4.57;60.05;100791.69;5012738;28;20049;-68
2024/03/04 03:16:04;;;;;;;58.92;24.35;;;;;;;4.43;60.25;100787.59;5029918;28;20045;-69
2024/03/04 03:18:34;;;;;;;120.53;26.83;;;;;;;4.54;59.79;100791.72;5021247;28;20039;-68
2024/03/04 03:20:59;;;;;;;75.82;28.10;;;;;;;4.46;60.11;100803.94;5023799;28;20048;-71
2024/03/04 03:23:25;;;;;;;71.88;25.73;;;;;;;4.39;60.61;100806.63;5017663;28;20672;-66
2024/03/04 03:25:50;;;;;;;117.55;25.77;;;;;;;4.38;60.20;100811.81;5026679;28;20050;-70
2024/03/04 03:28:16;;;;;;;92.47;25.15;;;;;;;4.40;60.42;100807.47;5021350;28;20033;-67
2024/03/04 03:30:42;;;;;;;69.70;25.05;;;;;;;4.42;60.36;100816.91;5018133;28;20778;-77
2024/03/04 03:33:08;;;;;;;65.88;25.17;;;;;;;4.36;60.45;100827.38;5030190;28;20063;-67
2024/03/04 03:35:33;;;;;;;64.55;25.85;;;;;;;4.57;60.37;100822.75;5012836;28;20119;-66
2024/03/04 03:37:59;;;;;;;51.22;25.17;;;;;;;4.56;60.34;100832.22;5026581;28;20041;-66
2024/03/04 03:40:24;;;;;;;64.00;27.73;;;;;;;4.64;59.96;100829.53;5015054;28;20041;-66
2024/03/04 03:42:50;;;;;;;57.75;25.83;;;;;;;4.68;60.02;100838.13;5021600;28;20442;-67
2024/03/04 03:45:15;;;;;;;87.40;26.35;;;;;;;4.65;60.04;100839.00;5027552;28;20120;-71
2024/03/04 03:47:41;;;;;;;68.07;26.88;;;;;;;4.58;60.59;100839.97;5015875;28;20564;-67
2024/03/04 03:50:07;;;;;;;48.92;25.00;;;;;;;4.65;60.38;100839.00;5008178;28;20056;-67
2024/03/04 03:52:34;;;;;;;59.10;25.45;;;;;;;4.64;60.29;100843.31;5016898;28;20144;-74
2024/03/04 03:55:00;;;;;;;59.85;24.20;;;;;;;4.69;60.12;100845.84;5029104;28;20029;-75
2024/03/04 03:57:25;;;;;;;51.75;24.80;;;;;;;4.78;60.34;100840.50;5017109;28;20698;-76
2024/03/04 03:59:51;;;;;;;72.18;27.98;;;;;;;4.82;60.03;100842.19;5017403;28;20035;-75
2024/03/04 04:02:16;;;;;;;54.95;25.80;;;;;;;4.73;59.69;100854.44;5024536;28;20254;-77
2024/03/04 04:04:42;;;;;;;71.68;26.10;;;;;;;4.59;60.11;100859.81;5017514;28;20491;-75
2024/03/04 04:07:07;;;;;;;86.38;24.83;;;;;;;4.54;60.47;100864.19;5008952;28;20037;-75
2024/03/04 04:09:33;;;;;;;71.30;25.50;;;;;;;4.58;60.21;100860.69;5016870;28;20116;-75
2024/03/04 04:11:58;;;;;;;88.40;27.45;;;;;;;4.43;60.39;100862.63;5022974;28;20129;-71
2024/03/04 04:14:24;;;;;;;58.42;24.17;;;;;;;4.51;60.22;100864.25;5027708;28;20075;-71
2024/03/04 04:16:50;;;;;;;62.00;24.65;;;;;;;4.58;60.11;100868.44;5024463;28;20183;-71
2024/03/04 04:19:16;;;;;;;61.78;25.42;;;;;;;4.59;60.08;100870.19;5029627;28;20037;-72
2024/03/04 04:21:41;;;;;;;50.80;24.38;;;;;;;4.63;60.47;100864.06;5004486;28;21170;-71
2024/03/04 04:24:07;;;;;;;65.40;25.27;;;;;;;4.66;60.20;100869.19;5026384;28;20483;-71
2024/03/04 04:26:34;;;;;;;63.00;25.50;;;;;;;4.66;60.45;100874.38;5019171;28;20132;-72
2024/03/04 04:28:59;;;;;;;62.25;25.90;;;;;;;4.48;60.45;100872.94;5021134;28;20056;-66
2024/03/04 04:31:25;;;;;;;60.47;24.30;;;;;;;4.46;61.02;100874.69;5023236;28;20174;-70
2024/03/04 04:33:50;;;;;;;46.55;23.08;;;;;;;4.68;60.55;100872.63;5025071;28;20060;-68
2024/03/04 04:36:16;;;;;;;48.17;23.52;;;;;;;4.72;60.12;100869.13;5029523;28;20123;-68
2024/03/04 04:38:44;;;;;;;59.33;24.58;;;;;;;4.73;60.06;100872.56;5019515;28;20094;-72
2024/03/04 04:41:09;;;;;;;71.32;24.70;;;;;;;4.62;59.90;100870.97;5028686;28;20090;-69
2024/03/04 04:43:36;;;;;;;53.13;23.77;;;;;;;4.65;60.01;100870.06;5023639;28;20129;-70
2024/03/04 04:46:01;;;;;;;48.25;23.73;;;;;;;4.62;59.75;100881.31;5027269;28;20146;-71
2024/03/04 04:48:27;;;;;;;61.28;23.15;;;;;;;4.55;60.15;100891.81;5029438;28;20514;-70
2024/03/04 04:50:52;;;;;;;53.22;24.48;;;;;;;4.63;60.30;100882.16;5017467;28;20039;-66
2024/03/04 04:53:20;;;;;;;51.85;23.73;;;;;;;4.67;60.11;100888.19;5014193;28;20036;-70
2024/03/04 04:55:46;;;;;;;62.65;25.10;;;;;;;4.71;59.59;100889.84;4979001;28;20541;-71
2024/03/04 04:58:13;;;;;;;63.83;24.13;;;;;;;4.57;59.81;100892.66;5001481;28;20036;-70
2024/03/04 05:00:40;;;;;;;68.95;23.73;;;;;;;4.51;60.06;100892.72;4997888;28;20115;-68
2024/03/04 05:03:05;;;;;;;46.83;24.13;;;;;;;4.62;60.09;100896.84;5028872;28;20502;-68
2024/03/04 05:05:31;;;;;;;63.30;24.02;;;;;;;4.68;59.97;100895.09;5020700;28;20037;-72
2024/03/04 05:07:56;;;;;;;48.22;22.17;;;;;;;4.70;59.96;100899.34;5030117;28;20070;-72
2024/03/04 05:10:22;;;;;;;51.70;25.50;;;;;;;4.76;60.03;100894.06;5006830;28;20036;-72
2024/03/04 05:12:48;;;;;;;69.18;24.00;;;;;;;4.75;59.58;100896.69;5000496;28;20040;-72
2024/03/04 05:15:15;;;;;;;49.65;23.60;;;;;;;4.77;59.80;100895.78;5026240;28;20044;-71
2024/03/04 05:17:41;;;;;;;48.47;23.10;;;;;;;4.79;59.83;100894.03;5020238;28;20052;-70
2024/03/04 05:20:07;;;;;;;59.75;25.52;;;;;;;4.74;59.85;100898.41;5030284;28;20036;-72
2024/03/04 05:22:33;;;;;;;47.42;24.83;;;;;;;4.66;60.08;100902.84;5017278;28;20148;-71
2024/03/04 05:24:58;;;;;;;62.15;24.92;;;;;;;4.66;59.88;100905.44;4994250;28;20078;-71
2024/03/04 05:27:24;;;;;;;46.92;22.83;;;;;;;4.60;60.27;100906.38;5021910;28;20033;-71
2024/03/04 05:29:50;;;;;;;59.13;25.88;;;;;;;4.82;59.67;100914.69;4985169;28;21609;-71
2024/03/04 05:32:16;;;;;;;50.78;23.40;;;;;;;4.81;59.96;100922.47;5010999;28;20052;-71
2024/03/04 05:34:43;;;;;;;60.25;25.95;;;;;;;4.83;59.58;100926.78;5017938;28;20044;-71
2024/03/04 05:37:12;;;;;;;59.42;25.63;;;;;;;4.76;59.63;100935.47;5026132;28;20033;-73
2024/03/04 05:39:38;;;;;;;55.55;26.40;;;;;;;4.70;59.80;100933.00;5019162;28;20690;-72
2024/03/04 05:42:04;;;;;;;62.25;27.30;;;;;;;4.75;60.04;100933.78;5001429;28;20040;-72
2024/03/04 05:44:30;;;;;;;50.42;25.60;;;;;;;4.84;60.09;100931.06;5019658;28;20043;-71
2024/03/04 05:46:55;;;;;;;67.13;26.98;;;;;;;4.75;59.88;100936.38;5013638;28;20083;-70
2024/03/04 05:49:21;;;;;;;55.65;25.65;;;;;;;4.80;59.86;100947.50;5023654;28;20103;-69
2024/03/04 05:51:47;;;;;;;66.45;27.80;;;;;;;4.88;59.62;100933.63;5002058;28;20322;-70
2024/03/04 05:54:12;;;;;;;59.42;26.75;;;;;;;4.81;59.77;100944.06;5021930;28;20127;-69
2024/03/04 05:56:46;;;;;;;61.95;25.70;;;;;;;4.90;60.00;100942.22;5021370;28;20589;-74
2024/03/04 05:59:12;;;;;;;71.10;27.95;;;;;;;4.89;59.83;100949.16;5026879;28;20036;-77
2024/03/04 06:01:38;;;;;;;64.55;27.52;;;;;;;4.95;59.71;100953.41;5032469;28;20164;-75
2024/03/04 06:04:06;;;;;;;67.75;27.45;;;;;;;5.00;59.98;100943.81;5033268;28;20156;-74
2024/03/04 06:06:33;;;;;;;85.75;26.52;;;;;;;4.94;59.70;100951.66;5028831;28;20044;-77
2024/03/04 06:08:59;;;;;;;63.63;26.30;;;;;;;4.93;59.46;100953.41;5015937;28;20329;-77
2024/03/04 06:11:28;;;;;;;58.35;26.08;;;;;;;4.86;60.05;100956.09;5035551;28;20124;-73
2024/03/04 06:13:53;;;;;;;57.67;27.48;;;;;;;5.04;60.03;100956.69;5014824;28;20794;-74
2024/03/04 06:16:20;;;;;;;66.85;28.25;;;;;;;4.99;59.75;100957.66;5018089;28;20037;-73
2024/03/04 06:18:47;;;;;;;66.68;27.05;;;;;;;5.02;59.94;100960.19;5014393;28;20325;-72
2024/03/04 06:21:12;;;;;;;59.83;25.00;;;;;;;4.96;59.70;100957.69;5015571;28;20587;-74
2024/03/04 06:23:38;;;;;;;60.85;26.48;;;;;;;4.95;59.67;100959.44;5016657;28;20041;-72
2024/03/04 06:26:09;;;;;;;58.60;28.67;;;;;;;4.99;59.88;100968.88;5022651;28;20044;-73
2024/03/04 06:28:35;;;;;;;66.22;26.88;;;;;;;4.98;59.73;100961.09;5012849;28;20030;-73
2024/03/04 06:31:00;;;;;;;68.72;26.92;;;;;;;5.01;59.94;100961.06;5006536;28;20139;-74
2024/03/04 06:33:26;;;;;;;101.70;29.65;;;;;;;5.04;59.55;100961.03;4993230;28;20164;-72
2024/03/04 06:35:51;;;;;;;57.38;27.67;;;;;;;5.08;60.00;100962.69;5001849;28;20284;-75
2024/03/04 06:38:17;;;;;;;68.97;28.20;;;;;;;5.06;59.93;100964.44;5010334;28;20048;-75
2024/03/04 06:40:43;;;;;;;58.65;26.63;;;;;;;5.11;60.27;100967.81;5007077;28;20704;-73
2024/03/04 06:43:09;;;;;;;81.40;28.60;;;;;;;5.17;59.43;100979.84;4990203;28;20043;-73
2024/03/04 06:45:36;;;;;;;77.13;27.30;;;;;;;5.21;59.37;100974.56;4993398;28;20116;-71
2024/03/04 06:48:03;;;;;;;115.70;30.92;;;;;;;5.19;59.41;100978.91;4973129;28;20043;-71
2024/03/04 06:50:29;;;;;;;75.93;29.25;;;;;;;5.25;59.79;100971.03;4999403;28;20308;-71
2024/03/04 06:52:56;;;;;;;63.15;29.00;;;;;;;5.38;59.77;100982.06;5002389;28;20032;-71
2024/03/04 06:55:21;;;;;;;84.88;29.70;;;;;;;5.39;59.32;100978.59;5019596;28;20040;-71
2024/03/04 06:57:47;;;;;;;56.42;26.45;;;;;;;5.42;59.22;100988.91;5000375;28;20048;-73
2024/03/04 07:00:13;;;;;;;65.35;27.45;;;;;;;5.55;59.67;100983.53;5018137;28;20126;-72
2024/03/04 07:02:39;;;;;;;60.33;28.48;;;;;;;5.59;59.33;100988.63;5021590;28;20688;-73
2024/03/04 07:05:06;;;;;;;59.42;27.77;;;;;;;5.49;59.43;100999.19;5020002;28;20085;-72
2024/03/04 07:07:32;;;;;;;64.15;29.48;;;;;;;5.51;59.46;100993.09;5012620;28;20094;-72
2024/03/04 07:09:59;;;;;;;73.95;29.00;;;;;;;5.56;58.93;100999.03;5020492;28;20044;-73
2024/03/04 07:12:25;;;;;;;65.72;29.58;;;;;;;5.50;59.64;100990.50;5023111;28;21042;-74
2024/03/04 07:14:50;;;;;;;66.13;28.85;;;;;;;5.61;59.11;100988.59;5018760;28;20036;-72
2024/03/04 07:17:16;;;;;;;63.80;28.38;;;;;;;5.69;59.28;100991.06;5027092;28;20406;-73
2024/03/04 07:19:42;;;;;;;68.50;29.25;;;;;;;5.60;58.97;101003.28;5024576;28;20045;-71
2024/03/04 07:22:08;;;;;;;61.40;27.88;;;;;;;5.67;59.23;100984.16;5023514;28;20463;-73
2024/03/04 07:24:34;;;;;;;64.18;28.25;;;;;;;5.79;59.33;100988.28;5033659;28;20036;-73
2024/03/04 07:26:59;;;;;;;72.53;31.00;;;;;;;5.65;58.81;101001.47;5014621;28;20059;-72
2024/03/04 07:29:25;;;;;;;86.47;31.45;;;;;;;5.67;59.18;101004.03;5027377;28;20478;-72
2024/03/04 07:31:50;;;;;;;96.00;30.42;;;;;;;5.57;59.19;100998.16;5016916;28;20106;-71
2024/03/04 07:34:16;;;;;;;75.25;29.70;;;;;;;5.61;59.15;100999.84;5024753;28;20119;-71
2024/03/04 07:36:42;;;;;;;65.78;29.40;;;;;;;5.63;59.54;101008.41;5028519;28;20032;-74
2024/03/04 07:39:08;;;;;;;72.57;29.33;;;;;;;5.70;59.47;101013.50;5008947;28;21574;-76
2024/03/04 07:41:34;;;;;;;87.72;36.17;;;;;;;5.71;59.34;101015.22;5035939;28;20110;-76
2024/03/04 07:43:59;;;;;;;75.85;31.50;;;;;;;5.73;59.26;101023.84;5018313;28;20048;-75
2024/03/04 07:46:26;;;;;;;96.80;33.65;;;;;;;5.70;59.54;101029.06;5006908;28;20040;-75
2024/03/04 07:48:52;;;;;;;77.20;31.83;;;;;;;5.72;59.45;101025.56;5021288;28;20058;-78
2024/03/04 07:51:17;;;;;;;81.28;31.63;;;;;;;5.80;59.29;101021.09;5017320;28;20150;-76
2024/03/04 07:53:43;;;;;;;74.15;31.25;;;;;;;5.86;59.04;101014.97;5016072;28;20252;-77
2024/03/04 07:56:10;;;;;;;76.00;32.03;;;;;;;5.88;59.24;101018.34;5006120;28;20047;-74
2024/03/04 07:58:36;;;;;;;78.07;34.00;;;;;;;5.87;59.06;101029.63;5020903;28;20057;-72
2024/03/04 08:01:02;;;;;;;87.88;30.27;;;;;;;5.80;59.09;101033.22;5010308;28;20222;-71
2024/03/04 08:03:27;;;;;;;85.93;31.60;;;;;;;5.74;58.99;101035.91;5039545;28;20486;-72
2024/03/04 08:05:53;;;;;;;76.88;31.42;;;;;;;5.79;59.70;101039.28;5020360;28;20052;-71
2024/03/04 08:08:18;;;;;;;83.15;32.83;;;;;;;5.88;59.27;101033.91;5035499;28;20031;-70
2024/03/04 08:10:44;;;;;;;77.45;32.55;;;;;;;5.78;59.27;101033.25;5006594;28;20136;-70
2024/03/04 08:13:10;;;;;;;86.03;33.00;;;;;;;6.00;58.89;101033.72;5010641;28;20210;-70
2024/03/04 08:15:35;;;;;;;76.45;31.30;;;;;;;5.98;59.25;101039.81;5027796;28;20663;-71
2024/03/04 08:18:01;;;;;;;72.47;31.75;;;;;;;5.97;59.29;101038.09;5001406;28;20784;-70
2024/03/04 08:20:26;;;;;;;76.65;31.63;;;;;;;6.09;58.96;101038.72;5017667;28;20147;-69
2024/03/04 08:22:52;;;;;;;76.30;32.50;;;;;;;6.08;59.21;101041.34;5008887;28;20028;-71
2024/03/04 08:25:17;;;;;;;78.85;32.45;;;;;;;6.23;58.89;101042.81;5026242;28;21491;-70
2024/03/04 08:27:43;;;;;;;76.00;34.25;;;;;;;6.20;58.79;101040.28;5028526;28;20041;-70
2024/03/04 08:30:09;;;;;;;75.45;29.73;;;;;;;6.29;59.06;101046.19;5018720;28;20683;-70
2024/03/04 08:32:35;;;;;;;66.93;28.83;;;;;;;6.36;59.04;101051.25;5019974;28;20032;-70
2024/03/04 08:35:01;;;;;;;75.72;32.90;;;;;;;6.32;58.62;101052.19;5020808;28;20098;-70
2024/03/04 08:37:29;;;;;;;72.78;29.95;;;;;;;6.44;58.73;101045.03;5021996;28;20106;-70
2024/03/04 08:39:58;;;;;;;73.40;31.48;;;;;;;6.56;58.67;101049.09;5023560;28;20040;-71
2024/03/04 08:42:24;;;;;;;64.60;30.58;;;;;;;6.60;57.53;101055.09;5007503;28;20677;-71
2024/03/04 08:44:50;;;;;;;75.72;33.33;;;;;;;6.74;58.24;101058.25;5029440;28;20044;-70
2024/03/04 08:47:15;;;;;;;67.15;28.33;;;;;;;6.82;57.24;101056.38;5013241;28;21129;-70
2024/03/04 08:49:40;;;;;;;69.60;29.50;;;;;;;6.84;57.14;101053.72;5028573;28;20548;-70
2024/03/04 08:52:06;;;;;;;75.70;29.98;;;;;;;6.77;57.83;101057.34;5019796;28;20569;-70
2024/03/04 08:54:32;;;;;;;65.18;29.42;;;;;;;6.81;57.23;101052.03;5027424;28;20405;-70
2024/03/04 08:56:57;;;;;;;69.28;30.15;;;;;;;6.86;57.70;101063.22;5025579;28;20053;-71
2024/03/04 08:59:23;;;;;;;69.38;31.00;;;;;;;7.02;57.68;101066.34;5027769;28;20066;-70
2024/03/04 09:01:48;;;;;;;66.82;30.73;;;;;;;7.33;57.93;101063.88;5026969;28;20101;-70
2024/03/04 09:04:14;;;;;;;64.18;28.85;;;;;;;7.36;56.81;101064.72;5014120;28;20102;-70
2024/03/04 09:06:39;;;;;;;73.30;32.20;;;;;;;7.38;56.27;101068.09;5015329;28;20271;-71
2024/03/04 09:09:05;;;;;;;70.65;31.48;;;;;;;7.48;56.76;101065.25;5022192;28;20966;-69
2024/03/04 09:11:32;;;;;;;68.45;33.15;;;;;;;7.63;56.06;101065.81;5020842;28;20202;-68
2024/03/04 09:13:58;;;;;;;71.10;31.95;;;;;;;7.68;56.22;101059.59;5007287;28;20229;-70
2024/03/04 09:16:24;;;;;;;68.97;32.17;;;;;;;7.85;55.51;101060.94;5037885;28;20123;-70
2024/03/04 09:18:50;;;;;;;83.40;33.10;;;;;;;8.03;55.37;101057.84;5022969;28;20119;-70
2024/03/04 09:21:16;;;;;;;70.95;31.88;;;;;;;8.24;54.88;101058.16;5018544;28;20048;-68
2024/03/04 09:23:42;;;;;;;72.78;31.30;;;;;;;8.38;54.33;101058.63;5021522;28;20028;-68
2024/03/04 09:26:09;;;;;;;63.42;29.95;;;;;;;8.41;53.00;101066.38;5018602;28;20435;-68
2024/03/04 09:28:34;;;;;;;65.07;29.52;;;;;;;8.37;53.60;101067.34;5023509;28;20410;-69
2024/03/04 09:31:00;;;;;;;61.28;31.52;;;;;;;8.35;52.90;101061.31;5025628;28;20047;-68
2024/03/04 09:33:26;;;;;;;64.18;31.83;;;;;;;8.42;52.90;101064.63;5017819;28;21211;-68
2024/03/04 09:35:51;;;;;;;70.43;34.67;;;;;;;8.18;52.92;101059.16;5025355;28;20513;-67
2024/03/04 09:38:17;;;;;;;77.72;33.85;;;;;;;8.17;54.10;101062.69;5021323;28;20032;-70
2024/03/04 09:40:45;;;;;;;73.13;31.73;;;;;;;8.28;53.23;101057.19;5024184;28;20079;-69
2024/03/04 09:43:13;;;;;;;77.53;33.80;;;;;;;8.30;52.92;101058.00;5018182;28;20504;-69
2024/03/04 09:45:40;;;;;;;73.80;32.88;;;;;;;8.04;53.55;101062.16;5024650;28;20672;-69
2024/03/04 09:48:09;;;;;;;66.63;32.25;;;;;;;8.05;53.62;101065.63;5021282;28;20449;-69
2024/03/04 09:50:35;;;;;;;74.88;32.58;;;;;;;8.07;53.87;101077.72;5025373;28;20104;-69
2024/03/04 09:53:01;;;;;;;79.47;33.05;;;;;;;8.04;54.44;101072.56;5012604;28;20108;-69
2024/03/04 09:55:27;;;;;;;74.22;32.45;;;;;;;8.04;54.57;101072.56;5025092;28;23259;-69
2024/03/04 09:57:53;;;;;;;76.47;32.40;;;;;;;8.05;54.61;101070.84;5031194;28;20041;-69
2024/03/04 10:00:20;;;;;;;66.20;31.35;;;;;;;7.99;54.50;101061.41;5016699;28;20033;-69
2024/03/04 10:02:46;;;;;;;70.03;33.03;;;;;;;8.03;53.97;101068.25;5024159;28;20041;-69
2024/03/04 10:05:13;;;;;;;66.50;31.08;;;;;;;7.96;54.92;101079.72;5014031;28;20105;-69
2024/03/04 10:07:39;;;;;;;76.57;33.35;;;;;;;8.11;54.56;101068.94;5024276;28;20040;-69
2024/03/04 10:10:08;;;;;;;73.57;32.15;;;;;;;8.36;53.13;101083.88;5022071;28;20021;-69
2024/03/04 10:12:33;;;;;;;75.10;33.13;;;;;;;8.38;53.59;101087.28;5018290;28;20049;-69
2024/03/04 10:15:09;;;;;;;78.68;33.70;;;;;;;8.52;53.57;101089.53;5025645;28;20086;-69
2024/03/04 10:17:36;;;;;;;81.00;34.33;;;;;;;8.60;53.15;101086.69;5020490;28;20042;-69
2024/03/04 10:20:05;;;;;;;73.07;33.25;;;;;;;8.61;53.52;101089.25;5028702;28;20086;-69
2024/03/04 10:22:35;;;;;;;77.70;36.50;;;;;;;8.83;53.02;101089.53;5004453;28;20052;-69
2024/03/04 10:25:05;;;;;;;68.63;31.30;;;;;;;8.79;52.13;101095.72;5024137;28;20051;-69
2024/03/04 10:27:33;;;;;;;74.63;31.33;;;;;;;8.82;51.79;101093.03;5016382;28;20124;-69
2024/03/04 10:30:12;;;;;;;67.03;31.23;;;;;;;8.70;53.01;101098.56;5023721;28;20481;-69
2024/03/04 10:32:39;;;;;;;67.10;32.10;;;;;;;8.66;52.44;101097.78;5022315;28;20123;-69
2024/03/04 10:35:05;;;;;;;62.40;29.42;;;;;;;8.70;52.84;101099.41;5024906;28;20033;-69
2024/03/04 10:37:32;;;;;;;67.10;30.60;;;;;;;8.79;51.77;101095.72;5016770;28;20284;-69
2024/03/04 10:39:57;;;;;;;68.32;29.35;;;;;;;8.72;53.33;101091.59;5020469;28;20111;-69
2024/03/04 10:42:25;;;;;;;74.03;32.05;;;;;;;8.56;53.28;101096.34;5010792;28;20084;-69
2024/03/04 10:44:52;;;;;;;79.47;34.08;;;;;;;8.82;52.89;101100.84;5021050;28;20139;-69
2024/03/04 10:47:20;;;;;;;76.88;32.80;;;;;;;8.77;52.32;101094.91;5009351;28;20101;-69
2024/03/04 10:49:48;;;;;;;67.45;33.97;;;;;;;9.01;51.46;101100.28;5026622;28;20124;-69
2024/03/04 10:52:14;;;;;;;71.03;32.67;;;;;;;8.96;52.16;101101.31;5018726;28;20048;-69
2024/03/04 10:54:44;;;;;;;70.90;32.70;;;;;;;8.40;52.70;101106.31;5025688;28;20089;-69
2024/03/04 10:57:26;;;;;;;63.88;30.00;;;;;;;8.48;53.73;101108.72;5018616;28;20039;-68
2024/03/04 11:00:20;;;;;;;71.05;31.30;;;;;;;8.45;53.37;101098.38;5024121;28;20032;-67
2024/03/04 11:03:01;;;;;;;68.88;32.20;;;;;;;8.64;52.80;101098.75;5026787;28;20052;-68
2024/03/04 11:05:32;;;;;;;64.43;30.35;;;;;;;8.77;51.71;101094.91;5009404;28;20160;-68
2024/03/04 11:08:04;;;;;;;66.97;30.25;;;;;;;8.82;53.18;101093.03;5023829;28;20074;-69
2024/03/04 11:10:38;;;;;;;;;;;;;;;8.89;52.53;101094.53;5011256;28;20109;-68
2024/03/04 11:13:25;;;;;;;72.35;32.05;;;;;;;8.74;52.35;101105.44;5025167;28;20026;-68